Time;durP1;ratioP1;P1;durP2;ratioP2;P2;SDS_P1;SDS_P2;PMS_P1;PMS_P2;Temp;Humidity;BMP_temperature;BMP_pressure;BME280_temperature;BME280_humidity;BME280_pressure;Samples;Min_cycle;Max_cycle;Signal;HPM_P1;HPM_P2
2022/03/14 00:01:13;;;;;;;4.40;1.95;;;;;;;;;;5019542;28;20179;-82
2022/03/14 00:03:50;;;;;;;4.35;2.10;;;;;;;;;;4992955;28;20191;-82
2022/03/14 00:06:17;;;;;;;3.67;1.83;;;;;;;;;;4997925;28;20252;-83
2022/03/14 00:08:44;;;;;;;2.40;1.63;;;;;;;;;;4998296;28;20179;-83
2022/03/14 00:11:12;;;;;;;5.57;2.15;;;;;;;;;;5002146;28;20242;-83
2022/03/14 00:13:38;;;;;;;8.40;2.65;;;;;;;;;;5003023;28;20218;-83
2022/03/14 00:16:04;;;;;;;1.73;1.63;;;;;;;;;;5015657;28;20172;-82
2022/03/14 00:18:34;;;;;;;3.17;1.85;;;;;;;;;;5007172;28;20195;-83
2022/03/14 00:21:00;;;;;;;4.97;1.92;;;;;;;;;;4996170;28;20191;-83
2022/03/14 00:23:27;;;;;;;3.80;1.50;;;;;;;;;;5002657;28;20259;-83
2022/03/14 00:25:54;;;;;;;3.53;1.25;;;;;;;;;;4988564;28;20211;-83
2022/03/14 00:28:20;;;;;;;3.90;1.77;;;;;;;;;;5007477;28;20235;-82
2022/03/14 00:30:46;;;;;;;3.83;1.73;;;;;;;;;;5019721;28;20183;-83
2022/03/14 00:33:12;;;;;;;3.00;1.75;;;;;;;;;;5013669;28;20636;-82
2022/03/14 00:35:39;;;;;;;5.35;1.67;;;;;;;;;;5000243;28;20215;-82
2022/03/14 00:38:05;;;;;;;5.70;2.42;;;;;;;;;;5015308;28;20191;-82
2022/03/14 00:40:32;;;;;;;4.10;1.75;;;;;;;;;;5003215;28;20223;-82
2022/03/14 00:42:58;;;;;;;6.03;2.13;;;;;;;;;;4991349;28;20192;-82
2022/03/14 00:45:25;;;;;;;6.88;2.30;;;;;;;;;;4997926;28;20650;-82
2022/03/14 00:47:51;;;;;;;4.15;2.20;;;;;;;;;;4996187;28;20194;-82
2022/03/14 00:50:17;;;;;;;5.13;2.10;;;;;;;;;;5001975;28;20183;-82
2022/03/14 00:52:43;;;;;;;3.75;1.38;;;;;;;;;;5004115;28;20187;-83
2022/03/14 00:55:09;;;;;;;5.25;2.00;;;;;;;;;;5018403;28;20172;-82
2022/03/14 00:57:35;;;;;;;9.30;2.05;;;;;;;;;;4997071;28;20194;-82
2022/03/14 01:00:01;;;;;;;6.10;2.08;;;;;;;;;;5013710;28;20183;-82
2022/03/14 01:02:27;;;;;;;4.55;1.92;;;;;;;;;;5002986;28;20195;-82
2022/03/14 01:04:53;;;;;;;3.38;1.75;;;;;;;;;;5001160;28;20190;-82
2022/03/14 01:07:20;;;;;;;2.97;1.42;;;;;;;;;;5019035;28;20230;-82
2022/03/14 01:09:46;;;;;;;5.00;1.40;;;;;;;;;;5003250;28;20189;-82
2022/03/14 01:12:12;;;;;;;7.30;1.95;;;;;;;;;;5001225;28;20187;-82
2022/03/14 01:14:39;;;;;;;4.10;1.52;;;;;;;;;;5002653;28;20190;-81
2022/03/14 01:17:05;;;;;;;8.68;1.73;;;;;;;;;;5002211;28;20183;-82
2022/03/14 01:19:31;;;;;;;5.07;1.98;;;;;;;;;;4986343;28;20215;-82
2022/03/14 01:21:57;;;;;;;4.22;2.08;;;;;;;;;;5019583;28;20190;-82
2022/03/14 01:24:24;;;;;;;4.13;1.48;;;;;;;;;;4994524;28;20215;-82
2022/03/14 01:26:51;;;;;;;5.00;1.80;;;;;;;;;;5000909;28;20203;-82
2022/03/14 01:29:18;;;;;;;9.52;2.30;;;;;;;;;;4997692;28;20196;-82
2022/03/14 01:31:44;;;;;;;9.52;2.13;;;;;;;;;;5002653;28;20175;-82
2022/03/14 01:34:10;;;;;;;4.07;1.65;;;;;;;;;;5014414;28;20222;-82
2022/03/14 01:36:36;;;;;;;6.60;2.28;;;;;;;;;;5016807;28;20193;-82
2022/03/14 01:39:03;;;;;;;5.97;1.92;;;;;;;;;;5013233;28;20254;-82
2022/03/14 01:41:29;;;;;;;6.93;1.80;;;;;;;;;;5015438;28;20211;-82
2022/03/14 01:43:56;;;;;;;2.33;1.60;;;;;;;;;;5015700;28;20198;-82
2022/03/14 01:46:22;;;;;;;4.25;2.40;;;;;;;;;;4997022;28;20206;-82
2022/03/14 01:48:48;;;;;;;4.47;1.23;;;;;;;;;;5015215;28;20187;-82
2022/03/14 01:51:16;;;;;;;4.53;1.40;;;;;;;;;;5013256;28;20571;-81
2022/03/14 01:53:42;;;;;;;4.18;1.85;;;;;;;;;;5014415;28;20184;-82
2022/03/14 01:56:12;;;;;;;8.85;1.80;;;;;;;;;;4988506;28;20222;-82
2022/03/14 01:58:38;;;;;;;3.15;1.88;;;;;;;;;;5019213;28;20202;-82
2022/03/14 02:01:04;;;;;;;5.25;2.38;;;;;;;;;;5018638;28;20184;-82
2022/03/14 02:03:30;;;;;;;7.15;2.10;;;;;;;;;;4998719;28;20187;-82
2022/03/14 02:05:56;;;;;;;7.40;1.60;;;;;;;;;;5000300;28;20208;-82
2022/03/14 02:08:23;;;;;;;7.65;2.25;;;;;;;;;;4994775;28;20187;-82
2022/03/14 02:10:49;;;;;;;6.78;2.33;;;;;;;;;;5002246;28;20183;-82
2022/03/14 02:13:15;;;;;;;3.75;1.70;;;;;;;;;;5004305;28;20647;-82
2022/03/14 02:15:41;;;;;;;5.30;1.83;;;;;;;;;;5004787;28;20258;-82
2022/03/14 02:18:07;;;;;;;5.63;2.72;;;;;;;;;;5014699;28;20191;-82
2022/03/14 02:20:33;;;;;;;8.73;2.50;;;;;;;;;;4994576;28;20186;-82
2022/03/14 02:22:59;;;;;;;5.00;1.75;;;;;;;;;;5018179;28;20203;-82
2022/03/14 02:25:25;;;;;;;6.40;2.80;;;;;;;;;;4989720;28;20176;-82
2022/03/14 02:27:51;;;;;;;6.85;2.80;;;;;;;;;;4995103;28;20614;-82
2022/03/14 02:30:18;;;;;;;5.95;1.98;;;;;;;;;;5001503;28;20659;-82
2022/03/14 02:32:44;;;;;;;4.35;1.88;;;;;;;;;;5016694;28;20187;-82
2022/03/14 02:35:10;;;;;;;5.65;2.00;;;;;;;;;;4998691;28;20195;-82
2022/03/14 02:37:37;;;;;;;5.47;2.10;;;;;;;;;;5004598;28;20203;-82
2022/03/14 02:40:04;;;;;;;4.53;2.05;;;;;;;;;;4997502;28;20219;-82
2022/03/14 02:42:31;;;;;;;5.05;2.95;;;;;;;;;;4999042;28;20187;-82
2022/03/14 02:44:57;;;;;;;5.20;1.80;;;;;;;;;;4998650;28;20183;-82
2022/03/14 02:47:23;;;;;;;1.98;1.45;;;;;;;;;;4997633;28;20210;-82
2022/03/14 02:49:49;;;;;;;3.47;2.42;;;;;;;;;;5020788;28;20185;-81
2022/03/14 02:52:15;;;;;;;7.72;2.15;;;;;;;;;;4991686;28;20258;-82
2022/03/14 02:54:42;;;;;;;5.22;1.80;;;;;;;;;;5004577;28;20194;-82
2022/03/14 02:57:09;;;;;;;6.43;2.03;;;;;;;;;;5003841;28;20190;-82
2022/03/14 02:59:35;;;;;;;6.80;2.75;;;;;;;;;;5002655;28;20179;-82
2022/03/14 03:02:01;;;;;;;7.25;1.67;;;;;;;;;;5004456;28;20238;-82
2022/03/14 03:04:27;;;;;;;15.43;4.03;;;;;;;;;;5003076;28;20191;-82
2022/03/14 03:06:54;;;;;;;5.60;2.25;;;;;;;;;;5017050;28;20558;-82
2022/03/14 03:09:20;;;;;;;5.85;1.75;;;;;;;;;;5024903;28;20180;-82
2022/03/14 03:11:46;;;;;;;2.42;1.80;;;;;;;;;;5000057;28;20179;-82
2022/03/14 03:14:12;;;;;;;7.60;2.23;;;;;;;;;;5004189;28;20179;-82
2022/03/14 03:16:38;;;;;;;3.47;1.42;;;;;;;;;;5002217;28;20447;-82
2022/03/14 03:19:06;;;;;;;8.00;2.00;;;;;;;;;;5017972;28;20176;-83
2022/03/14 03:21:34;;;;;;;5.45;2.20;;;;;;;;;;5008596;28;20651;-82
2022/03/14 03:24:00;;;;;;;8.88;2.60;;;;;;;;;;4999463;28;20254;-82
2022/03/14 03:26:26;;;;;;;9.65;2.08;;;;;;;;;;5009203;28;20215;-82
2022/03/14 03:28:52;;;;;;;5.72;1.70;;;;;;;;;;5004416;28;20179;-82
2022/03/14 03:31:21;;;;;;;6.82;2.53;;;;;;;;;;5020650;28;20198;-82
2022/03/14 03:33:47;;;;;;;5.22;2.72;;;;;;;;;;5017046;28;20172;-82
2022/03/14 03:36:14;;;;;;;8.52;2.50;;;;;;;;;;5007295;28;20197;-82
2022/03/14 03:38:40;;;;;;;6.28;2.22;;;;;;;;;;4990682;28;20655;-82
2022/03/14 03:41:06;;;;;;;4.68;2.05;;;;;;;;;;5003902;28;20194;-82
2022/03/14 03:43:32;;;;;;;6.78;1.85;;;;;;;;;;5018795;28;20179;-82
2022/03/14 03:45:58;;;;;;;2.47;1.77;;;;;;;;;;5004514;28;20536;-82
2022/03/14 03:48:24;;;;;;;9.57;2.78;;;;;;;;;;5015002;28;20194;-82
2022/03/14 03:50:50;;;;;;;8.20;2.20;;;;;;;;;;5014873;28;20191;-82
2022/03/14 03:53:16;;;;;;;6.43;3.20;;;;;;;;;;5003617;28;20187;-82
2022/03/14 03:55:42;;;;;;;3.80;2.10;;;;;;;;;;4996665;28;20241;-82
2022/03/14 03:58:08;;;;;;;7.18;2.25;;;;;;;;;;5004478;28;20238;-83
2022/03/14 04:00:34;;;;;;;6.22;1.88;;;;;;;;;;5012060;28;20211;-82
2022/03/14 04:03:00;;;;;;;8.00;2.28;;;;;;;;;;4996984;28;20195;-82
2022/03/14 04:05:27;;;;;;;9.07;2.92;;;;;;;;;;4992273;28;20199;-82
2022/03/14 04:07:58;;;;;;;11.50;2.90;;;;;;;;;;4988020;28;20179;-82
2022/03/14 04:10:27;;;;;;;4.43;1.85;;;;;;;;;;5009333;28;20182;-82
2022/03/14 04:12:54;;;;;;;7.78;3.22;;;;;;;;;;5001755;28;20453;-81
2022/03/14 04:15:22;;;;;;;2.53;1.67;;;;;;;;;;4994750;28;20191;-82
2022/03/14 04:17:49;;;;;;;4.65;2.22;;;;;;;;;;5018290;28;20179;-82
2022/03/14 04:20:15;;;;;;;4.45;2.00;;;;;;;;;;5013053;28;20183;-82
2022/03/14 04:22:41;;;;;;;6.85;2.75;;;;;;;;;;5002078;28;20183;-81
2022/03/14 04:25:11;;;;;;;4.45;1.70;;;;;;;;;;5016621;28;20186;-82
2022/03/14 04:27:37;;;;;;;4.30;2.08;;;;;;;;;;5016758;28;20206;-82
2022/03/14 04:30:03;;;;;;;8.48;2.03;;;;;;;;;;4998244;28;20218;-82
2022/03/14 04:32:29;;;;;;;9.27;2.38;;;;;;;;;;4993483;28;20194;-82
2022/03/14 04:34:55;;;;;;;7.28;2.45;;;;;;;;;;5012319;28;20184;-81
2022/03/14 04:37:21;;;;;;;9.73;2.20;;;;;;;;;;4987261;28;20183;-82
2022/03/14 04:39:47;;;;;;;5.65;1.90;;;;;;;;;;5015348;28;20231;-82
2022/03/14 04:42:15;;;;;;;9.57;2.53;;;;;;;;;;5017816;28;20187;-82
2022/03/14 04:44:41;;;;;;;4.70;1.65;;;;;;;;;;4999730;28;20188;-82
2022/03/14 04:47:07;;;;;;;6.22;2.67;;;;;;;;;;4987684;28;20206;-82
2022/03/14 04:49:33;;;;;;;3.47;2.38;;;;;;;;;;5002357;28;20207;-82
2022/03/14 04:51:59;;;;;;;6.93;1.70;;;;;;;;;;5019009;28;20202;-82
2022/03/14 04:54:25;;;;;;;10.23;2.25;;;;;;;;;;5002436;28;20198;-81
2022/03/14 04:56:54;;;;;;;7.07;2.70;;;;;;;;;;4995814;28;20234;-82
2022/03/14 04:59:21;;;;;;;4.55;2.30;;;;;;;;;;4997148;28;20183;-82
2022/03/14 05:01:47;;;;;;;5.68;2.50;;;;;;;;;;5003119;28;20178;-82
2022/03/14 05:04:13;;;;;;;9.50;2.38;;;;;;;;;;5019598;28;20175;-82
2022/03/14 05:06:40;;;;;;;6.72;2.58;;;;;;;;;;5002630;28;20219;-81
2022/03/14 05:09:06;;;;;;;5.90;2.30;;;;;;;;;;4990193;28;20187;-82
2022/03/14 05:11:38;;;;;;;7.55;2.53;;;;;;;;;;4991638;28;20186;-82
2022/03/14 05:14:04;;;;;;;9.05;2.60;;;;;;;;;;5001497;28;20217;-83
2022/03/14 05:16:30;;;;;;;4.45;2.70;;;;;;;;;;4985220;28;20191;-81
2022/03/14 05:18:56;;;;;;;3.95;2.10;;;;;;;;;;5018782;28;20641;-81
2022/03/14 05:21:23;;;;;;;8.25;2.47;;;;;;;;;;5013743;28;20270;-82
2022/03/14 05:23:49;;;;;;;8.80;2.70;;;;;;;;;;5017627;28;20690;-82
2022/03/14 05:26:15;;;;;;;7.82;3.17;;;;;;;;;;5001684;28;20203;-81
2022/03/14 05:28:41;;;;;;;5.78;2.38;;;;;;;;;;5011145;28;20652;-82
2022/03/14 05:31:07;;;;;;;3.40;2.13;;;;;;;;;;4990274;28;20180;-82
2022/03/14 05:33:33;;;;;;;5.45;2.20;;;;;;;;;;4992614;28;20215;-82
2022/03/14 05:35:58;;;;;;;5.03;2.17;;;;;;;;;;5010213;28;20267;-82
2022/03/14 05:38:25;;;;;;;10.10;2.85;;;;;;;;;;4994198;28;20187;-82
2022/03/14 05:40:51;;;;;;;8.23;2.20;;;;;;;;;;4988860;28;20648;-82
2022/03/14 05:43:17;;;;;;;4.82;1.85;;;;;;;;;;4992234;28;20180;-82
2022/03/14 05:45:44;;;;;;;6.18;3.63;;;;;;;;;;5005249;28;20246;-82
2022/03/14 05:48:09;;;;;;;6.80;2.22;;;;;;;;;;5005945;28;20194;-82
2022/03/14 05:50:35;;;;;;;5.97;2.70;;;;;;;;;;5015681;28;20191;-83
2022/03/14 05:53:02;;;;;;;5.80;3.67;;;;;;;;;;4992337;28;20210;-82
2022/03/14 05:55:28;;;;;;;3.83;2.75;;;;;;;;;;5021042;28;20175;-82
2022/03/14 05:57:54;;;;;;;7.18;2.22;;;;;;;;;;5007356;28;20178;-82
2022/03/14 06:00:24;;;;;;;5.70;2.55;;;;;;;;;;5006447;28;20187;-82
2022/03/14 06:02:51;;;;;;;6.80;2.65;;;;;;;;;;5014923;28;20186;-81
2022/03/14 06:05:21;;;;;;;5.93;2.15;;;;;;;;;;5016465;28;20187;-82
2022/03/14 06:07:48;;;;;;;6.88;3.30;;;;;;;;;;4990262;28;20205;-82
2022/03/14 06:10:15;;;;;;;6.22;2.45;;;;;;;;;;4988222;28;20183;-82
2022/03/14 06:12:41;;;;;;;4.03;2.45;;;;;;;;;;5001559;28;20198;-83
2022/03/14 06:15:12;;;;;;;6.13;3.70;;;;;;;;;;4999852;28;20670;-82
2022/03/14 06:17:41;;;;;;;7.50;3.67;;;;;;;;;;5002801;28;20178;-82
2022/03/14 06:20:07;;;;;;;8.73;2.50;;;;;;;;;;5003179;28;20187;-82
2022/03/14 06:22:37;;;;;;;6.75;2.67;;;;;;;;;;5004389;28;20206;-82
2022/03/14 06:25:03;;;;;;;5.40;2.45;;;;;;;;;;5021553;28;20180;-82
2022/03/14 06:27:29;;;;;;;3.75;2.65;;;;;;;;;;5003507;28;20243;-82
2022/03/14 06:29:55;;;;;;;8.18;3.47;;;;;;;;;;5005136;28;20183;-82
2022/03/14 06:32:21;;;;;;;6.50;2.30;;;;;;;;;;5006083;28;20207;-82
2022/03/14 06:34:47;;;;;;;5.95;2.78;;;;;;;;;;4995829;28;20187;-82
2022/03/14 06:37:14;;;;;;;3.97;2.83;;;;;;;;;;5014789;28;20217;-82
2022/03/14 06:39:40;;;;;;;6.70;2.60;;;;;;;;;;5005012;28;20227;-82
2022/03/14 06:42:09;;;;;;;5.72;2.60;;;;;;;;;;4999380;28;20262;-83
2022/03/14 06:44:39;;;;;;;5.97;3.08;;;;;;;;;;5002571;28;20198;-82
2022/03/14 06:47:09;;;;;;;3.92;2.50;;;;;;;;;;4999618;28;20213;-83
2022/03/14 06:49:36;;;;;;;6.72;2.90;;;;;;;;;;5003908;28;20185;-83
2022/03/14 06:52:02;;;;;;;11.65;3.22;;;;;;;;;;5018495;28;20236;-82
2022/03/14 06:54:28;;;;;;;3.80;2.28;;;;;;;;;;4996417;28;20188;-82
2022/03/14 06:56:54;;;;;;;8.13;2.60;;;;;;;;;;4999069;28;20187;-82
2022/03/14 06:59:20;;;;;;;9.60;2.92;;;;;;;;;;5003783;28;20274;-83
2022/03/14 07:01:46;;;;;;;5.53;3.78;;;;;;;;;;5014302;28;20653;-82
2022/03/14 07:04:12;;;;;;;6.95;3.78;;;;;;;;;;5020930;28;20218;-81
2022/03/14 07:06:38;;;;;;;7.13;3.20;;;;;;;;;;5000246;28;20214;-82
2022/03/14 07:09:04;;;;;;;9.73;3.22;;;;;;;;;;5001896;28;20186;-82
2022/03/14 07:11:31;;;;;;;4.95;3.30;;;;;;;;;;5004183;28;20183;-82
2022/03/14 07:13:57;;;;;;;4.80;2.85;;;;;;;;;;5001970;28;20254;-82
2022/03/14 07:16:23;;;;;;;6.85;3.90;;;;;;;;;;5001811;28;20183;-82
2022/03/14 07:18:49;;;;;;;6.15;2.80;;;;;;;;;;5003443;28;20183;-82
2022/03/14 07:21:16;;;;;;;5.32;2.63;;;;;;;;;;5001800;28;20254;-81
2022/03/14 07:23:42;;;;;;;10.52;3.88;;;;;;;;;;4999820;28;20184;-81
2022/03/14 07:26:08;;;;;;;4.82;3.00;;;;;;;;;;5001362;28;20200;-80
2022/03/14 07:28:35;;;;;;;11.82;3.95;;;;;;;;;;5001675;28;20175;-80
2022/03/14 07:31:01;;;;;;;5.35;3.33;;;;;;;;;;5002835;28;20213;-80
2022/03/14 07:33:28;;;;;;;10.02;4.38;;;;;;;;;;5002162;28;20191;-81
2022/03/14 07:35:54;;;;;;;8.10;4.55;;;;;;;;;;4998509;28;20188;-80
2022/03/14 07:38:20;;;;;;;7.35;5.78;;;;;;;;;;4995864;28;20273;-80
2022/03/14 07:40:46;;;;;;;10.02;4.93;;;;;;;;;;5002235;28;20261;-85
2022/03/14 07:43:13;;;;;;;8.75;6.40;;;;;;;;;;5021320;28;20183;-86
2022/03/14 07:45:39;;;;;;;9.73;7.10;;;;;;;;;;5008093;28;20191;-86
2022/03/14 07:48:05;;;;;;;17.10;6.93;;;;;;;;;;5013945;28;20183;-86
2022/03/14 07:50:31;;;;;;;13.13;7.43;;;;;;;;;;5006688;28;20588;-86
2022/03/14 07:52:58;;;;;;;27.25;15.23;;;;;;;;;;5006720;28;20191;-84
2022/03/14 07:55:24;;;;;;;14.93;8.43;;;;;;;;;;4989589;28;20259;-86
2022/03/14 07:57:51;;;;;;;14.55;8.20;;;;;;;;;;5019785;28;20215;-85
2022/03/14 08:00:21;;;;;;;16.70;8.55;;;;;;;;;;4995577;28;20259;-87
2022/03/14 08:02:47;;;;;;;7.85;5.28;;;;;;;;;;4997288;28;20180;-86
2022/03/14 08:05:15;;;;;;;5.28;3.35;;;;;;;;;;5017704;28;20179;-86
2022/03/14 08:07:47;;;;;;;10.73;4.10;;;;;;;;;;5004838;28;20626;-86
2022/03/14 08:10:14;;;;;;;8.55;5.30;;;;;;;;;;4998855;28;20233;-85
2022/03/14 08:12:49;;;;;;;8.73;4.03;;;;;;;;;;4994201;28;20184;-85
2022/03/14 08:15:25;;;;;;;8.73;4.07;;;;;;;;;;5012751;28;20259;-84
2022/03/14 08:17:52;;;;;;;7.82;4.47;;;;;;;;;;4995484;28;20187;-85
2022/03/14 08:20:19;;;;;;;9.32;3.95;;;;;;;;;;5001349;28;20672;-85
2022/03/14 08:22:45;;;;;;;10.52;3.88;;;;;;;;;;5002218;28;20660;-85
2022/03/14 08:25:11;;;;;;;9.32;6.32;;;;;;;;;;5013512;28;20224;-85
2022/03/14 08:27:38;;;;;;;6.20;3.40;;;;;;;;;;4989154;28;20212;-83
2022/03/14 08:30:05;;;;;;;12.43;4.20;;;;;;;;;;4996714;28;20194;-85
2022/03/14 08:32:32;;;;;;;12.10;4.93;;;;;;;;;;5002503;28;20190;-85
2022/03/14 08:34:58;;;;;;;7.45;5.22;;;;;;;;;;5011511;28;20190;-85
2022/03/14 08:37:24;;;;;;;6.57;4.30;;;;;;;;;;5002434;28;20180;-85
2022/03/14 08:39:50;;;;;;;15.55;4.45;;;;;;;;;;5016815;28;20235;-86
2022/03/14 08:42:16;;;;;;;11.25;3.45;;;;;;;;;;4991400;28;20724;-85
2022/03/14 08:44:42;;;;;;;11.15;3.10;;;;;;;;;;4992159;28;20243;-84
2022/03/14 08:47:08;;;;;;;7.28;2.85;;;;;;;;;;5017034;28;20226;-85
2022/03/14 08:49:34;;;;;;;6.05;3.38;;;;;;;;;;4995691;28;20171;-85
2022/03/14 08:52:01;;;;;;;8.50;3.00;;;;;;;;;;5016870;28;20180;-85
2022/03/14 08:54:27;;;;;;;11.85;3.28;;;;;;;;;;5015342;28;20187;-84
2022/03/14 08:56:54;;;;;;;5.40;2.97;;;;;;;;;;5010691;28;20188;-84
2022/03/14 08:59:20;;;;;;;4.60;2.70;;;;;;;;;;4994634;28;20218;-85
2022/03/14 09:01:46;;;;;;;8.63;4.15;;;;;;;;;;5000215;28;20187;-83
2022/03/14 09:04:12;;;;;;;10.98;3.10;;;;;;;;;;5003050;28;20234;-85
2022/03/14 09:06:38;;;;;;;11.70;2.83;;;;;;;;;;5010375;28;20281;-83
2022/03/14 09:09:04;;;;;;;8.25;3.83;;;;;;;;;;5011004;28;20206;-83
2022/03/14 09:11:30;;;;;;;9.15;3.83;;;;;;;;;;5000729;28;20174;-82
2022/03/14 09:13:56;;;;;;;8.18;3.92;;;;;;;;;;4986634;28;20179;-83
2022/03/14 09:16:23;;;;;;;8.52;3.10;;;;;;;;;;5014412;28;20190;-79
2022/03/14 09:18:50;;;;;;;5.65;3.47;;;;;;;;;;4998621;28;20208;-79
2022/03/14 09:21:16;;;;;;;13.25;3.20;;;;;;;;;;5000894;28;20191;-80
2022/03/14 09:23:42;;;;;;;9.50;2.90;;;;;;;;;;5011122;28;20187;-78
2022/03/14 09:26:08;;;;;;;8.27;3.30;;;;;;;;;;5004064;28;20209;-79
2022/03/14 09:28:36;;;;;;;5.70;2.80;;;;;;;;;;5003402;28;20178;-81
2022/03/14 09:31:02;;;;;;;5.68;2.58;;;;;;;;;;5017661;28;20179;-81
2022/03/14 09:33:28;;;;;;;9.23;3.72;;;;;;;;;;5001201;28;20329;-83
2022/03/14 09:35:54;;;;;;;12.75;3.30;;;;;;;;;;5005902;28;20191;-81
2022/03/14 09:38:20;;;;;;;9.20;3.30;;;;;;;;;;5000623;28;20263;-81
2022/03/14 09:40:47;;;;;;;8.95;4.07;;;;;;;;;;4998777;28;20253;-81
2022/03/14 09:43:17;;;;;;;6.93;2.38;;;;;;;;;;5015366;28;20650;-82
2022/03/14 09:45:46;;;;;;;8.25;3.15;;;;;;;;;;4999434;28;20707;-81
2022/03/14 09:48:13;;;;;;;8.20;3.75;;;;;;;;;;5001636;28;20238;-82
2022/03/14 09:50:40;;;;;;;8.65;2.95;;;;;;;;;;4993535;28;20554;-81
2022/03/14 09:53:09;;;;;;;8.95;2.80;;;;;;;;;;4998758;28;20192;-82
2022/03/14 09:55:41;;;;;;;6.90;3.10;;;;;;;;;;5018074;28;20246;-82
2022/03/14 09:58:08;;;;;;;9.18;2.90;;;;;;;;;;5003855;28;20240;-82
2022/03/14 10:00:35;;;;;;;11.20;3.17;;;;;;;;;;4999848;28;20214;-82
2022/03/14 10:03:02;;;;;;;7.43;2.83;;;;;;;;;;5013790;28;20216;-82
2022/03/14 10:05:28;;;;;;;13.82;3.45;;;;;;;;;;5001748;28;20186;-83
2022/03/14 10:07:54;;;;;;;7.70;3.15;;;;;;;;;;4996371;28;20195;-82
2022/03/14 10:10:20;;;;;;;9.80;3.10;;;;;;;;;;4991294;28;20179;-83
2022/03/14 10:12:52;;;;;;;7.60;3.00;;;;;;;;;;5001242;28;20182;-83
2022/03/14 10:15:19;;;;;;;9.38;3.08;;;;;;;;;;4992358;28;20497;-84
2022/03/14 10:17:45;;;;;;;9.07;2.40;;;;;;;;;;4990796;28;20195;-84
2022/03/14 10:20:11;;;;;;;3.30;2.20;;;;;;;;;;5002036;28;20309;-83
2022/03/14 10:22:38;;;;;;;6.85;2.78;;;;;;;;;;5005214;28;20234;-83
2022/03/14 10:25:09;;;;;;;10.30;2.70;;;;;;;;;;5018505;28;20187;-82
2022/03/14 10:27:35;;;;;;;5.18;2.42;;;;;;;;;;5037159;28;20210;-82
2022/03/14 10:30:01;;;;;;;11.77;3.72;;;;;;;;;;5011115;28;20282;-83
2022/03/14 10:32:30;;;;;;;12.93;3.38;;;;;;;;;;5016487;28;20194;-82
2022/03/14 10:34:58;;;;;;;3.75;2.35;;;;;;;;;;5017754;28;20179;-82
2022/03/14 10:37:27;;;;;;;15.10;2.75;;;;;;;;;;5004689;28;20366;-83
2022/03/14 10:39:58;;;;;;;8.80;2.75;;;;;;;;;;5006248;28;20223;-81
2022/03/14 10:42:24;;;;;;;6.85;2.63;;;;;;;;;;5020349;28;20187;-81
2022/03/14 10:44:50;;;;;;;11.87;2.27;;;;;;;;;;5003841;28;20190;-81
2022/03/14 10:47:17;;;;;;;12.85;2.95;;;;;;;;;;5015279;28;20474;-81
2022/03/14 10:49:43;;;;;;;4.72;2.90;;;;;;;;;;5021157;28;20190;-82
2022/03/14 10:52:13;;;;;;;7.10;1.85;;;;;;;;;;5017751;28;20194;-81
2022/03/14 10:54:39;;;;;;;14.18;2.95;;;;;;;;;;5020209;28;20215;-81
2022/03/14 10:57:15;;;;;;;10.25;2.50;;;;;;;;;;5014621;28;20199;-82
2022/03/14 10:59:45;;;;;;;9.73;3.40;;;;;;;;;;4996677;28;20186;-86
2022/03/14 11:02:12;;;;;;;7.07;2.10;;;;;;;;;;5005323;28;20190;-84
2022/03/14 11:04:46;;;;;;;8.52;2.28;;;;;;;;;;5019251;28;20210;-81
2022/03/14 11:07:13;;;;;;;7.63;2.00;;;;;;;;;;5021444;28;20199;-82
2022/03/14 11:09:45;;;;;;;7.20;2.75;;;;;;;;;;5004761;28;20176;-82
2022/03/14 11:12:12;;;;;;;8.23;2.65;;;;;;;;;;4999690;28;20301;-82
2022/03/14 11:14:39;;;;;;;9.48;2.90;;;;;;;;;;5003951;28;20175;-81
2022/03/14 11:17:10;;;;;;;7.90;2.53;;;;;;;;;;5003539;28;20187;-81
2022/03/14 11:19:37;;;;;;;11.00;2.22;;;;;;;;;;5003942;28;20180;-82
2022/03/14 11:22:04;;;;;;;7.25;2.08;;;;;;;;;;5020456;28;20278;-81
2022/03/14 11:24:30;;;;;;;5.72;2.40;;;;;;;;;;5002745;28;20551;-82
2022/03/14 11:26:56;;;;;;;9.27;2.38;;;;;;;;;;4995700;28;20211;-81
2022/03/14 11:29:22;;;;;;;5.30;1.98;;;;;;;;;;4997257;28;20187;-82
2022/03/14 11:31:49;;;;;;;5.88;2.15;;;;;;;;;;4997032;28;20215;-82
2022/03/14 11:34:17;;;;;;;5.90;2.75;;;;;;;;;;5019415;28;20243;-81
2022/03/14 11:36:43;;;;;;;9.90;3.10;;;;;;;;;;5003957;28;20556;-83
2022/03/14 11:39:10;;;;;;;8.30;2.47;;;;;;;;;;5002204;28;20247;-82
2022/03/14 11:41:38;;;;;;;7.32;2.42;;;;;;;;;;5001250;28;20195;-82
2022/03/14 11:44:06;;;;;;;6.15;2.17;;;;;;;;;;4999589;28;20200;-82
2022/03/14 11:46:35;;;;;;;13.75;2.25;;;;;;;;;;5017326;28;20257;-82
2022/03/14 11:49:14;;;;;;;12.38;2.13;;;;;;;;;;4992196;28;20623;-83
2022/03/14 11:51:41;;;;;;;4.97;2.05;;;;;;;;;;4997934;28;20240;-83
2022/03/14 11:54:14;;;;;;;9.73;2.65;;;;;;;;;;5001976;28;20187;-82
2022/03/14 11:56:54;;;;;;;4.78;2.00;;;;;;;;;;5002598;28;20190;-82
2022/03/14 11:59:30;;;;;;;7.60;2.00;;;;;;;;;;5014394;28;20213;-82
2022/03/14 12:01:58;;;;;;;3.10;1.52;;;;;;;;;;5003867;28;20246;-83
2022/03/14 12:04:31;;;;;;;6.07;2.00;;;;;;;;;;5019822;28;20246;-82
2022/03/14 12:06:58;;;;;;;7.25;1.95;;;;;;;;;;4990163;28;20223;-83
2022/03/14 12:09:27;;;;;;;7.25;2.10;;;;;;;;;;4995403;28;20184;-83
2022/03/14 12:11:52;;;;;;;10.55;2.88;;;;;;;;;;5009926;28;20227;-82
2022/03/14 12:14:34;;;;;;;3.67;1.80;;;;;;;;;;5001831;28;20185;-82
2022/03/14 12:17:16;;;;;;;7.10;2.25;;;;;;;;;;5000719;28;20502;-83
2022/03/14 12:19:44;;;;;;;5.00;2.20;;;;;;;;;;4994519;28;20288;-82
2022/03/14 12:22:15;;;;;;;12.30;3.30;;;;;;;;;;5018555;28;20987;-83
2022/03/14 12:24:46;;;;;;;4.10;1.50;;;;;;;;;;5000473;28;20434;-83
2022/03/14 12:27:26;;;;;;;7.27;2.27;;;;;;;;;;5000395;28;20445;-82
2022/03/14 12:29:54;;;;;;;3.37;1.80;;;;;;;;;;4999566;28;20446;-82
2022/03/14 12:32:22;;;;;;;6.23;1.93;;;;;;;;;;5004166;28;20428;-82
2022/03/14 12:35:03;;;;;;;5.00;2.20;;;;;;;;;;5002601;28;20442;-82
2022/03/14 12:37:37;;;;;;;5.90;2.10;;;;;;;;;;5003686;28;20485;-82
2022/03/14 12:40:04;;;;;;;6.93;2.30;;;;;;;;;;5017003;28;20466;-82
2022/03/14 12:42:38;;;;;;;5.20;2.43;;;;;;;;;;5003133;28;20452;-83
2022/03/14 12:45:14;;;;;;;4.43;2.20;;;;;;;;;;5011543;28;20451;-83
2022/03/14 12:47:48;;;;;;;9.70;2.13;;;;;;;;;;5000265;28;20548;-83
2022/03/14 12:50:34;;;;;;;5.07;2.10;;;;;;;;;;4994736;28;20507;-83
2022/03/14 12:53:00;;;;;;;5.63;2.07;;;;;;;;;;5002268;28;20430;-81
2022/03/14 12:55:26;;;;;;;6.30;1.63;;;;;;;;;;5017144;28;20432;-81
2022/03/14 12:57:52;;;;;;;4.60;2.30;;;;;;;;;;5003697;28;20433;-81
2022/03/14 13:00:18;;;;;;;6.73;2.80;;;;;;;;;;5001623;28;20446;-81
2022/03/14 13:02:44;;;;;;;6.00;2.13;;;;;;;;;;5002445;28;20452;-81
2022/03/14 13:05:11;;;;;;;4.80;2.30;;;;;;;;;;5001128;28;20525;-81
2022/03/14 13:07:37;;;;;;;6.60;2.90;;;;;;;;;;5002435;28;20458;-82
2022/03/14 13:10:03;;;;;;;3.23;1.70;;;;;;;;;;4989510;28;20447;-82
2022/03/14 13:12:30;;;;;;;5.13;2.20;;;;;;;;;;5000664;28;20434;-81
2022/03/14 13:15:12;;;;;;;4.40;2.43;;;;;;;;;;5003020;28;20449;-81
2022/03/14 13:17:45;;;;;;;9.27;2.60;;;;;;;;;;5014053;28;20432;-82
2022/03/14 13:20:32;;;;;;;8.50;3.17;;;;;;;;;;5002755;28;20433;-81
2022/03/14 13:22:58;;;;;;;4.80;1.93;;;;;;;;;;5016928;28;20868;-82
2022/03/14 13:25:31;;;;;;;6.00;2.40;;;;;;;;;;5018081;28;20930;-81
2022/03/14 13:27:57;;;;;;;3.80;1.97;;;;;;;;;;5017960;28;20419;-81
2022/03/14 13:30:23;;;;;;;3.50;2.43;;;;;;;;;;4996591;28;20796;-81
2022/03/14 13:32:49;;;;;;;6.90;2.23;;;;;;;;;;5002332;28;20430;-80
2022/03/14 13:35:16;;;;;;;6.30;2.73;;;;;;;;;;5002410;28;20440;-81
2022/03/14 13:37:45;;;;;;;4.73;2.60;;;;;;;;;;5004715;28;20600;-81
2022/03/14 13:40:29;;;;;;;5.17;2.20;;;;;;;;;;5004093;28;20467;-81
2022/03/14 13:42:56;;;;;;;10.73;2.57;;;;;;;;;;5002622;28;20424;-81
2022/03/14 13:45:24;;;;;;;4.90;1.83;;;;;;;;;;4997678;28;20462;-81
2022/03/14 13:47:56;;;;;;;3.47;2.10;;;;;;;;;;4999400;28;20471;-80
2022/03/14 13:50:23;;;;;;;6.10;2.07;;;;;;;;;;5002493;28;20464;-80
2022/03/14 13:52:52;;;;;;;4.83;2.13;;;;;;;;;;5000356;28;20445;-81
2022/03/14 13:55:18;;;;;;;4.90;2.13;;;;;;;;;;5017520;28;20430;-81
2022/03/14 13:57:45;;;;;;;4.93;1.60;;;;;;;;;;5017135;28;20445;-82
2022/03/14 14:00:13;;;;;;;5.77;2.10;;;;;;;;;;4997437;28;20450;-81
2022/03/14 14:02:39;;;;;;;4.20;1.70;;;;;;;;;;5002424;28;20442;-82
2022/03/14 14:05:09;;;;;;;3.70;1.80;;;;;;;;;;5020530;28;20480;-82
2022/03/14 14:07:35;;;;;;;5.40;1.50;;;;;;;;;;4990241;28;20462;-81
2022/03/14 14:10:09;;;;;;;7.13;2.63;;;;;;;;;;5020937;28;20472;-81
2022/03/14 14:12:35;;;;;;;4.43;1.53;;;;;;;;;;5005502;28;20460;-81
2022/03/14 14:15:03;;;;;;;5.03;1.83;;;;;;;;;;5005140;28;20455;-80
2022/03/14 14:17:32;;;;;;;8.57;2.03;;;;;;;;;;5004685;28;20428;-81
2022/03/14 14:20:21;;;;;;;5.60;2.00;;;;;;;;;;4990214;28;20448;-80
2022/03/14 14:22:47;;;;;;;3.60;2.20;;;;;;;;;;5003299;28;20530;-82
2022/03/14 14:25:13;;;;;;;4.53;1.70;;;;;;;;;;5022265;28;20945;-81
2022/03/14 14:27:55;;;;;;;2.93;1.63;;;;;;;;;;4995403;28;20504;-82
2022/03/14 14:30:45;;;;;;;7.33;2.63;;;;;;;;;;5000806;28;20444;-81
2022/03/14 14:33:15;;;;;;;6.10;2.60;;;;;;;;;;5013477;28;20445;-82
2022/03/14 14:35:42;;;;;;;5.80;2.03;;;;;;;;;;5015826;28;20451;-81
2022/03/14 14:38:10;;;;;;;4.40;1.97;;;;;;;;;;5016979;28;20440;-81
2022/03/14 14:40:43;;;;;;;4.60;1.97;;;;;;;;;;5020346;28;20472;-80
2022/03/14 14:43:09;;;;;;;4.40;2.03;;;;;;;;;;5022440;28;20415;-80